Sugarbush Valley, Vermont
Current Conditions -  °F | °C
As of 9:55 AM on Wednesday 22 Oct 2014 (Local Time) from K6B0 Reporting Station
Overcast Overcast  
Wind Chill:   Ceiling: 500
Heat Index:   Visibility: 10mi
Dew Point:   Wind: 10mph
Humidity: 100%   Direction: 360°N
Pressure: 30.15"   Gusts: NA
Location:  44.1108°N, 72.8612°W
Report Text: K6B0 221355Z AUTO 36009KT 10SM BKN005 BKN032 OVC042 09/09 A3015 RMK AO2 T00850085
Loading
Personal Weather Stations






























Interactive Weather Map
Tropical Storm Tracking
New forecast layout! Learn more

10-Day Weather Forecast

Advertisements
Track Severe Weather on mobile